x

Tanner Bank - 121nm West Of San Diego, Ca (46047) Wave Buoy

3:50 - Fri 29th Aug 2014 All times are PDT. -7 hours from GMT.

  • Sig Wave height 7.5ft
  • Swell Direction
  • Peak Period 10s
  • Average Period 6s
  • Wind
    18mph, 22mph gusts
  • Sea Temp 69°f
  • Luft Temp 66°f
  • Sea Pressure 1012.5mb
  • Tanner Bank - 121nm West Of San Diego, Ca
  • Tanner Bank - 121nm West Of San Diego, Ca

More Historic Weather Station data

Upgrade to MSW Pro to gain access to the past 30 days of data for over 8000 Wavebouys and Weather Stations around the globe.

Join Pro

Comparision Forecast

View Surf forecast
   
Fr 08/29 3:50 7.5ft 10s 6s 18 22 mph 1012.5mb 69f 66f
2:50 7ft 11s 6s 18 22 mph 1012.6mb 69f 66f
1:50 7.5ft 11s 6s 20 22 mph 1012.7mb 69f 67f
12:50 7.5ft 10s 6s 20 22 mph 1013mb 69f 67f
Do 08/28 11:50 7.5ft 11s 7s 20 25 mph 1013.2mb 69f 67f
10:50 7ft 11s 7s 18 22 mph 1013.8mb 69f 67f
9:50 7.5ft 11s 6s 18 20 mph 1013.8mb 69f 68f
8:50 7.5ft 11s 7s 18 22 mph 1013.6mb 69f 68f
7:50 7.5ft 11s 7s 20 22 mph 1013.5mb 69f 68f
6:50 7.5ft 11s 7s 20 22 mph 1013.5mb 69f 68f
5:50 7ft 11s 7s 20 22 mph 1013.6mb 69f 68f
4:50 8ft 12s 8s 18 22 mph 1013.9mb 69f 68f
3:50 8ft 11s 8s 18 20 mph 1014.7mb 69f 68f
2:50 7.5ft 11s 8s 16 20 mph 1015.3mb 69f 68f
1:50 8.5ft 11s 8s 18 20 mph 1015.7mb 69f 69f
12:50 8ft 11s 8s 16 18 mph 1016.1mb 69f 69f
11:50 8ft 12s 9s 13 16 mph 1016.6mb 69f 69f
10:50 8ft 12s 9s 13 16 mph 1016.9mb 69f 69f
9:50 8ft 12s 9s 11 13 mph 1016.9mb 69f 69f
8:50 9ft 12s 9s 11 13 mph 1016.5mb 69f 69f
7:50 8ft 12s 9s 11 16 mph 1016.3mb 69f 69f
6:50 8ft 12s 9s 11 16 mph 1016mb 69f 68f
5:50 8ft 12s 8s 13 16 mph 1015.8mb 69f 68f
4:50 9.5ft 12s 9s 13 16 mph 1015.9mb 69f 68f
3:50 8.5ft 12s 9s 11 13 mph 1016.4mb 69f 68f
2:50 9ft 13s 9s 13 16 mph 1016.5mb 69f 68f
1:50 9ft 13s 9s 11 16 mph 1017mb 69f 68f
12:50 8ft 14s 9s 13 16 mph 1016.8mb 69f 68f
Mi 08/27 11:50 9ft 12s 10s 13 16 mph 1016.8mb 69f 69f
10:50 9.5ft 12s 10s 11 16 mph 1016.7mb 69f 69f
9:50 9.5ft 13s 10s 13 18 mph 1016.5mb 70f 69f
8:50 8ft 11s 9s 13 16 mph 1016.1mb 70f 69f
7:50 9.5ft 14s 10s 11 16 mph 1015.9mb 70f 69f
6:50 8.5ft 14s 10s 11 13 mph 1015.8mb 70f 69f
5:50 9.5ft 14s 11s 11 16 mph 1016mb 70f 69f
4:50 9.5ft 14s 11s 11 16 mph 1016.2mb 70f 69f
3:50 11ft 14s 11s 11 13 mph 1016.4mb 71f 69f
2:50 11ft 13s 11s 9 13 mph 1016.9mb 71f 69f
1:50 11ft 14s 11s 7 11 mph 1017.4mb 70f 68f
12:50 11.5ft 14s 11s 9 13 mph 1017.4mb 70f 68f
11:50 10ft 12s 10s 9 11 mph 1017.8mb 70f 68f
10:50 11ft 14s 11s 7 9 mph 1017.9mb 69f 67f
9:50 10ft 14s 11s 9 13 mph 1017.5mb 69f 67f
8:50 11ft 14s 11s 9 11 mph 1017.4mb 69f 67f
7:50 11ft 13s 11s 9 13 mph 1016.7mb 69f 67f
6:50 10ft 14s 11s 9 13 mph 1016.3mb 69f 67f
5:50 10.5ft 15s 12s 11 13 mph 1015.9mb 69f 67f
4:50 9ft 14s 11s 9 13 mph 1015.7mb 69f 67f
3:50 10ft 15s 11s 7 11 mph 1016.1mb 69f 67f
2:50 9.5ft 15s 11s 7 11 mph 1016mb 69f 67f
1:50 10ft 15s 12s 9 13 mph 1015.8mb 69f 67f
12:50 10ft 15s 11s 7 11 mph 1015.9mb 69f 67f
Di 08/26 11:50 10ft 15s 11s 7 11 mph 1015.9mb 70f 67f
10:50 10ft 15s 11s 9 13 mph 1015.7mb 70f 67f
9:50 12ft 15s 12s 9 13 mph 1015.3mb 70f 67f
8:50 10ft 15s 11s 13 16 mph 1014.6mb 70f 67f
7:50 9.5ft 15s 11s 13 16 mph 1014.1mb 70f 67f
6:50 9ft 15s 11s 11 16 mph 1013.9mb 70f 67f
5:50 10ft 15s 11s 13 16 mph 1014.2mb 70f 67f
4:50 10ft 15s 11s 11 16 mph 1014.5mb 70f 67f
3:50 9ft 15s 11s 9 13 mph 1014.9mb 70f 67f
2:50 10.5ft 15s 12s 11 16 mph 1015.2mb 70f 67f
1:50 8.5ft 14s 11s 11 16 mph 1015.6mb 70f 67f
12:50 8ft 13s 11s 9 13 mph 1016.1mb 70f 67f
11:50 7ft 17s 10s 7 9 mph 1016.3mb 70f 67f
10:50 7ft 14s 10s 4 7 mph 1016.4mb 70f 67f
9:50 6.5ft 13s 9s 4 9 mph 1016.1mb 69f 67f
8:50 6.5ft 13s 10s 9 13 mph 1015.3mb 69f 67f
7:50 6.5ft 13s 9s 9 11 mph 1015.3mb 69f 67f
6:50 7.5ft 14s 10s 7 11 mph 1014.9mb 69f 67f
5:50 7ft 13s 9s 9 11 mph 1014.6mb 69f 67f
4:50 7ft 13s 9s 7 11 mph 1014.2mb 69f 67f
3:50 7ft 14s 9s 11 13 mph 1014.1mb 69f 67f
2:50 7ft 14s 10s 11 16 mph 1014.5mb 69f 68f
1:50 6.5ft 14s 9s 11 16 mph 1014.5mb 70f 68f
12:50 6.5ft 13s 9s 9 11 mph 1014.2mb 70f 68f
Mo 08/25 11:50 6ft 14s 9s 9 16 mph 1014.2mb 70f 68f
10:50 6ft 14s 9s 9 13 mph 1014.2mb 70f 68f
9:50 6ft 14s 9s 7 9 mph 1014.4mb 70f 67f
8:50 5.5ft 14s 9s 9 11 mph 1013.6mb 70f 67f
7:50 5.5ft 9s 8s 11 13 mph 1012.8mb 70f 67f
6:50 5ft 14s 8s 13 16 mph 1012.5mb 70f 67f
5:50 6ft 9s 8s 11 16 mph 1012.7mb 70f 68f
4:50 5ft 13s 8s 11 13 mph 1013.2mb 70f 67f
3:50 5.5ft 9s 8s 9 11 mph 1013.2mb 70f 67f
2:50 6ft 8s 8s 9 11 mph 1013.9mb 70f 67f
1:50 5.5ft 8s 8s 9 11 mph 1014mb 70f 67f
12:50 5.5ft 9s 8s 11 13 mph 1014.3mb 70f 67f
11:50 5.5ft 14s 8s 13 16 mph 1014mb 69f 67f